createdAt,value
2023-12-21T00:01:08.086Z,1.83
2023-12-21T00:07:11.743Z,1.40
2023-12-21T00:13:15.495Z,1.92
2023-12-21T00:19:20.530Z,1.90
2023-12-21T00:25:24.342Z,2.05
2023-12-21T00:31:27.890Z,2.10
2023-12-21T00:37:38.082Z,2.28
2023-12-21T00:43:42.044Z,2.28
2023-12-21T00:49:45.747Z,2.67
2023-12-21T00:55:50.832Z,1.92
2023-12-21T01:01:54.541Z,2.38
2023-12-21T01:07:58.218Z,2.20
2023-12-21T01:14:03.087Z,2.42
2023-12-21T01:20:07.086Z,2.80
2023-12-21T01:26:10.693Z,2.00
2023-12-21T01:32:15.530Z,2.33
2023-12-21T01:38:19.023Z,1.85
2023-12-21T01:44:22.519Z,2.17
2023-12-21T01:50:27.854Z,1.48
2023-12-21T01:56:32.071Z,1.58
2023-12-21T02:02:35.639Z,1.83
2023-12-21T02:08:40.554Z,2.13
2023-12-21T02:14:44.037Z,2.08
2023-12-21T02:20:47.722Z,1.80
2023-12-21T02:26:52.939Z,1.73
2023-12-21T02:32:56.579Z,2.53
2023-12-21T02:39:00.057Z,1.75
2023-12-21T02:45:04.964Z,2.58
2023-12-21T02:51:08.636Z,2.40
2023-12-21T02:57:12.548Z,2.08
2023-12-21T03:03:17.503Z,2.10
2023-12-21T03:09:21.110Z,1.60
2023-12-21T03:15:24.623Z,2.35
2023-12-21T03:21:29.430Z,2.03
2023-12-21T03:27:32.863Z,0.80
2023-12-21T03:33:36.564Z,1.15
2023-12-21T03:39:41.921Z,1.70
2023-12-21T03:45:45.492Z,1.25
2023-12-21T03:51:48.940Z,1.20
2023-12-21T03:57:53.768Z,0.90
2023-12-21T04:03:57.307Z,1.50
2023-12-21T04:10:00.835Z,1.52
2023-12-21T04:16:05.856Z,1.67
2023-12-21T04:22:09.450Z,1.60
2023-12-21T04:28:13.125Z,2.33
2023-12-21T04:34:17.980Z,1.05
2023-12-21T04:40:21.534Z,1.77
2023-12-21T04:46:25.921Z,1.33
2023-12-21T04:52:30.819Z,1.90
2023-12-21T04:58:34.467Z,1.10
2023-12-21T05:04:38.363Z,1.38
2023-12-21T05:10:43.611Z,0.90
2023-12-21T05:16:47.141Z,1.33
2023-12-21T05:22:51.074Z,1.17
2023-12-21T05:28:58.914Z,1.30
2023-12-21T05:35:02.781Z,1.30
2023-12-21T05:41:06.618Z,1.30
2023-12-21T05:47:11.718Z,1.52
2023-12-21T05:53:15.295Z,0.90
2023-12-21T05:59:18.717Z,1.00
2023-12-21T06:05:23.536Z,1.90
2023-12-21T06:11:29.621Z,0.93
2023-12-21T06:17:33.291Z,1.25
2023-12-21T06:23:38.248Z,1.08
2023-12-21T06:29:41.696Z,0.80
2023-12-21T06:35:45.232Z,0.98
2023-12-21T06:41:50.349Z,0.98
2023-12-21T06:47:53.850Z,1.10
2023-12-21T06:53:57.303Z,0.80
2023-12-21T07:00:02.631Z,0.88
2023-12-21T07:06:06.460Z,1.70
2023-12-21T07:12:10.110Z,1.00
2023-12-21T07:18:15.145Z,1.17
2023-12-21T07:24:18.835Z,0.80
2023-12-21T07:30:22.304Z,1.17
2023-12-21T07:36:28.646Z,0.88
2023-12-21T07:42:32.226Z,0.90
2023-12-21T07:48:35.780Z,0.90
2023-12-21T07:54:40.657Z,0.80
2023-12-21T08:00:44.248Z,1.10
2023-12-21T08:06:47.767Z,0.70
2023-12-21T08:12:52.772Z,0.75
2023-12-21T08:18:57.349Z,0.60
2023-12-21T08:25:01.217Z,1.00
2023-12-21T08:31:08.358Z,0.73
2023-12-21T08:37:13.727Z,1.00
2023-12-21T08:43:17.396Z,0.57
2023-12-21T08:49:22.719Z,1.00
2023-12-21T08:55:26.309Z,1.70
2023-12-21T09:01:32.040Z,2.25
2023-12-21T09:07:37.371Z,2.15
2023-12-21T09:13:40.909Z,2.13
2023-12-21T09:19:45.394Z,2.95
2023-12-21T09:25:53.076Z,2.00
2023-12-21T09:31:58.534Z,1.67
2023-12-21T09:38:02.138Z,1.98
2023-12-21T09:44:08.165Z,1.85
2023-12-21T09:50:12.004Z,1.15
2023-12-21T09:56:16.080Z,2.38
2023-12-21T10:02:23.026Z,1.60
2023-12-21T10:08:26.575Z,2.10
2023-12-21T10:14:30.926Z,1.38
2023-12-21T10:20:36.811Z,1.67
2023-12-21T10:26:46.974Z,1.45
2023-12-21T10:32:57.211Z,1.38
2023-12-21T10:39:03.069Z,1.00
2023-12-21T10:45:13.437Z,1.70
2023-12-21T10:51:24.464Z,1.20
2023-12-21T10:57:29.548Z,1.02
2023-12-21T11:03:33.703Z,1.23
2023-12-21T11:09:37.798Z,1.00
2023-12-21T11:15:43.663Z,1.17
2023-12-21T11:21:49.586Z,0.93
2023-12-21T11:27:54.286Z,0.77
2023-12-21T11:33:59.218Z,0.95
2023-12-21T11:40:05.770Z,1.40
2023-12-21T11:46:11.528Z,0.80
2023-12-21T11:52:26.599Z,1.00
2023-12-21T11:58:30.333Z,1.00
2023-12-21T12:04:34.059Z,1.10
2023-12-21T12:10:39.043Z,1.08
2023-12-21T12:16:42.561Z,1.05
2023-12-21T12:22:46.345Z,1.02
2023-12-21T12:28:52.457Z,1.02
2023-12-21T12:34:56.036Z,0.90
2023-12-21T12:41:01.189Z,0.80
2023-12-21T12:47:08.270Z,0.80
2023-12-21T12:53:12.072Z,1.30
2023-12-21T12:59:15.594Z,0.47
2023-12-21T13:05:21.569Z,0.75
2023-12-21T13:11:25.230Z,0.70
2023-12-21T13:17:29.227Z,1.13
2023-12-21T13:23:34.095Z,0.88
2023-12-21T13:29:38.263Z,1.05
2023-12-21T13:35:42.207Z,1.17
2023-12-21T13:41:47.075Z,0.90
2023-12-21T13:47:50.799Z,0.90
2023-12-21T13:53:56.315Z,0.70
2023-12-21T14:00:05.060Z,0.85
2023-12-21T14:06:08.991Z,0.60
2023-12-21T14:12:12.584Z,0.90
2023-12-21T14:18:17.741Z,0.60
2023-12-21T14:24:21.333Z,0.68
2023-12-21T14:30:24.805Z,0.60
2023-12-21T14:36:30.606Z,0.80
2023-12-21T14:42:34.536Z,0.52
2023-12-21T14:48:38.871Z,0.80
2023-12-21T14:54:43.810Z,0.70
2023-12-21T15:00:49.002Z,0.73
2023-12-21T15:06:52.857Z,0.63
2023-12-21T15:12:57.665Z,0.80
2023-12-21T15:19:01.247Z,0.70
2023-12-21T15:25:04.980Z,0.80
2023-12-21T15:31:10.089Z,0.50
2023-12-21T15:37:13.624Z,0.63
2023-12-21T15:43:17.191Z,0.55
2023-12-21T15:49:23.668Z,0.80
2023-12-21T15:55:28.413Z,0.98
2023-12-21T16:01:32.077Z,0.40
2023-12-21T16:07:37.001Z,0.60
2023-12-21T16:13:40.609Z,0.70
2023-12-21T16:19:44.375Z,0.73
2023-12-21T16:25:49.460Z,0.60
2023-12-21T16:31:53.469Z,0.60
2023-12-21T16:37:57.014Z,0.77
2023-12-21T16:44:01.901Z,0.70
2023-12-21T16:50:05.513Z,0.60
2023-12-21T16:56:09.324Z,0.50
2023-12-21T17:02:14.407Z,0.80
2023-12-21T17:08:18.028Z,0.68
2023-12-21T17:14:21.498Z,0.50
2023-12-21T17:20:27.119Z,0.90
2023-12-21T17:26:30.988Z,0.90
2023-12-21T17:32:34.468Z,1.23
2023-12-21T17:38:39.899Z,0.90
2023-12-21T17:44:43.678Z,0.60
2023-12-21T17:50:47.403Z,0.50
2023-12-21T17:56:52.490Z,0.52
2023-12-21T18:02:56.077Z,1.25
2023-12-21T18:08:59.608Z,1.00
2023-12-21T18:15:04.754Z,1.20
2023-12-21T18:21:08.280Z,1.20
2023-12-21T18:27:12.182Z,0.73
2023-12-21T18:33:17.181Z,1.00
2023-12-21T18:39:20.850Z,0.77
2023-12-21T18:45:24.448Z,1.20
2023-12-21T18:51:30.668Z,0.77
2023-12-21T18:57:34.173Z,0.88
2023-12-21T19:03:37.728Z,1.42
2023-12-21T19:09:42.756Z,1.58
2023-12-21T19:15:47.424Z,1.40
2023-12-21T19:21:51.860Z,1.30
2023-12-21T19:27:57.104Z,1.00
2023-12-21T19:34:01.019Z,1.05
2023-12-21T19:40:05.117Z,1.20
2023-12-21T19:46:10.389Z,1.17
2023-12-21T19:52:14.255Z,1.23
2023-12-21T19:58:19.394Z,1.05
2023-12-21T20:04:24.780Z,1.42
2023-12-21T20:10:28.746Z,1.00
2023-12-21T20:16:35.398Z,0.90
2023-12-21T20:22:40.573Z,1.35
2023-12-21T20:28:44.417Z,1.40
2023-12-21T20:34:48.007Z,1.23
2023-12-21T20:40:53.190Z,1.30
2023-12-21T20:46:56.917Z,0.90
2023-12-21T20:53:00.858Z,0.90
2023-12-21T20:59:09.479Z,0.90
2023-12-21T21:05:14.047Z,1.40
2023-12-21T21:11:17.688Z,1.17
2023-12-21T21:17:25.103Z,1.02
2023-12-21T21:23:30.169Z,0.90
2023-12-21T21:29:35.223Z,1.15
2023-12-21T21:35:40.077Z,1.15
2023-12-21T21:41:43.507Z,0.90
2023-12-21T21:47:47.325Z,1.35
2023-12-21T21:53:52.437Z,1.10
2023-12-21T21:59:56.084Z,0.90
2023-12-21T22:05:59.800Z,0.80
2023-12-21T22:12:04.953Z,1.00
2023-12-21T22:18:08.739Z,0.90
2023-12-21T22:24:12.668Z,1.58
2023-12-21T22:30:17.878Z,1.00
2023-12-21T22:36:21.357Z,0.93
2023-12-21T22:42:25.772Z,1.40
2023-12-21T22:48:31.266Z,1.02
2023-12-21T22:54:36.479Z,0.95
2023-12-21T23:00:39.936Z,1.23
2023-12-21T23:06:46.993Z,1.10
2023-12-21T23:12:51.227Z,1.30
2023-12-21T23:18:56.538Z,1.30
2023-12-21T23:25:01.562Z,0.90
2023-12-21T23:31:05.005Z,1.55
2023-12-21T23:37:08.492Z,1.35
2023-12-21T23:43:13.363Z,1.10
2023-12-21T23:49:17.139Z,1.00
2023-12-21T23:55:20.747Z,1.20
